Airfield :
LOGIN :

Register | Disclaimer

   EN    FR    IT 

 










Legend :    VFR   Marginal VFR   IFR   Intensive IFR   Very Intensive IFR
Visi :
Ceiling :
>= 8 km
>= 3000ft
5 to 8 km
1000 to 3000 ft
1500m to 5 km
500 to 1000 ft
800 to 1500m
200 to 500 ft
< 800m
< 200 ft
Symbols :   Thunderstorms  Fog  Heavy snow  Heavy precipitations  Wind > 20 kt
SIGMETs :     Misc.  Thunderstorms  Icing  Turbulence  Mountain Waves  Volcanic Ashes







- Airport Elevation : 160 ft
- IATA code : FMO


EDDG - Münster Osnabrück Int.

CURRENT METAR :
  • 191450Z 12007KT 040V190 CAVOK 24/01 Q1028 NOSIG

EXPIRED METARs :
  • 191420Z 12008KT 060V180 CAVOK 24/01 Q1028 NOSIG
  • 191350Z 13008KT 040V190 CAVOK 24/01 Q1029 NOSIG
  • 191320Z 10008KT 010V160 CAVOK 24/00 Q1029 NOSIG
  • 191250Z VRB07KT CAVOK 24/01 Q1029 NOSIG
  • 191220Z 10009KT 050V180 CAVOK 23/M00 Q1029 NOSIG

TAF TAF EDDG
Valid from the 19 at 12:00 until the 20 at 12:00 UTC


191100Z 1912/2012 08009KT CAVOK
BECMG 1917/1919 06004KT
No reported NOTAMs for that airfield.



MET'MAP, your aeronautical weather chart ! - Copyright ORBIFLY December 2007 - Disclaimer

ORBIFLY MET'MAP TEAM :

Programming & Development : Alexandra Zaïnal
Concept & Development : Baudouin d'Aumeries
Co-Development & Prog : Marc-Olivier Méhu
Technical & hardware support : Manuel Goepfert

Contact : metmap@orbifly.com




SOURCES & CREDITS :

   NOAA